Time;durP1;ratioP1;P1;durP2;ratioP2;P2;SDS_P1;SDS_P2;PMS_P1;PMS_P2;Temp;Humidity;BMP_temperature;BMP_pressure;BME280_temperature;BME280_humidity;BME280_pressure;Samples;Min_cycle;Max_cycle;Signal;HPM_P1;HPM_P2
2022/09/18 06:23:30;;;;;;;4.07;1.50;;;8.00;99.90;;;;;;5075085;27;20555;-85
2022/09/18 06:26:04;;;;;;;4.00;1.50;;;8.10;99.90;;;;;;5075171;28;20200;-86
2022/09/18 06:28:31;;;;;;;3.60;1.60;;;8.10;99.90;;;;;;5075438;28;20231;-85
2022/09/18 08:35:26;;;;;;;3.43;1.80;;;9.20;99.90;;;;;;5079497;28;20592;-85
2022/09/18 08:37:52;;;;;;;9.40;2.00;;;9.10;99.90;;;;;;5076829;28;20184;-85
2022/09/18 08:40:21;;;;;;;3.73;1.03;;;9.10;99.90;;;;;;5077402;28;20175;-85
2022/09/18 08:43:05;;;;;;;1.33;1.10;;;9.20;99.90;;;;;;5073606;28;20323;-85
2022/09/18 08:46:03;;;;;;;4.03;2.40;;;9.30;99.90;;;;;;5073397;28;20157;-86
2022/09/18 08:49:03;;;;;;;7.67;2.23;;;9.40;99.90;;;;;;5072604;28;20183;-86
2022/09/18 08:51:39;;;;;;;8.93;5.53;;;9.40;99.90;;;;;;5074307;28;20186;-86
2022/09/18 08:54:34;;;;;;;5.70;4.17;;;9.60;99.90;;;;;;5075654;28;20202;-87
2022/09/18 08:57:09;;;;;;;15.27;9.60;;;9.80;99.90;;;;;;5076727;28;20188;-86
2022/09/18 08:59:42;;;;;;;4.57;1.80;;;9.80;99.90;;;;;;5075964;28;20170;-85
2022/09/18 09:02:19;;;;;;;3.10;1.40;;;9.90;99.90;;;;;;5075460;28;20165;-86
2022/09/18 09:04:45;;;;;;;3.77;1.50;;;9.70;99.90;;;;;;5075566;28;20179;-86
2022/09/18 09:07:46;;;;;;;13.70;7.53;;;9.60;99.90;;;;;;5075770;28;20177;-87
2022/09/18 09:10:20;;;;;;;4.23;2.50;;;9.60;99.90;;;;;;5074233;28;20227;-82
2022/09/18 09:13:19;;;;;;;7.47;4.17;;;9.60;99.90;;;;;;5072451;28;20218;-86
2022/09/18 09:15:57;;;;;;;3.20;1.33;;;9.80;99.90;;;;;;5073560;28;20180;-86
2022/09/18 09:18:32;;;;;;;3.00;1.77;;;9.90;99.90;;;;;;5074576;28;20169;-85
2022/09/18 09:21:19;;;;;;;3.43;1.63;;;9.90;99.90;;;;;;5073166;28;20163;-87
2022/09/18 09:23:57;;;;;;;4.40;1.50;;;9.90;99.90;;;;;;5076495;28;20200;-87
2022/09/18 09:26:24;;;;;;;3.73;1.70;;;9.90;99.90;;;;;;5074884;28;20160;-86
2022/09/18 09:29:34;;;;;;;3.77;1.37;;;10.00;99.90;;;;;;5074641;28;20298;-85
2022/09/18 09:32:29;;;;;;;3.80;1.87;;;10.10;99.90;;;;;;5075089;28;20181;-85
2022/09/18 09:35:15;;;;;;;19.93;11.70;;;10.30;99.90;;;;;;5072541;28;20220;-84
2022/09/18 09:37:50;;;;;;;4.03;2.97;;;10.40;99.90;;;;;;5073983;28;20275;-83
2022/09/18 09:40:40;;;;;;;5.50;2.00;;;10.40;99.90;;;;;;5072490;28;20184;-83
2022/09/18 09:43:30;;;;;;;6.80;4.23;;;10.30;99.90;;;;;;5073134;28;20197;-84
2022/09/18 09:46:01;;;;;;;2.27;1.57;;;10.30;99.90;;;;;;5064205;28;20161;-84
2022/09/18 09:48:42;;;;;;;4.33;1.20;;;10.40;99.90;;;;;;5060233;28;20170;-84
2022/09/18 09:51:18;;;;;;;2.20;1.20;;;10.40;99.90;;;;;;5061645;28;20166;-84
2022/09/18 09:53:44;;;;;;;3.10;1.33;;;10.60;99.90;;;;;;5061876;28;20223;-85
2022/09/18 09:56:19;;;;;;;2.60;0.90;;;10.70;99.90;;;;;;5061753;28;20539;-85
2022/09/18 09:59:04;;;;;;;2.40;1.20;;;10.70;99.90;;;;;;5063013;28;20161;-85
2022/09/18 10:01:56;;;;;;;2.70;1.13;;;10.80;99.90;;;;;;5062791;28;20234;-84
2022/09/18 10:04:36;;;;;;;1.60;0.97;;;10.80;99.90;;;;;;5063773;28;20158;-85
2022/09/18 10:07:08;;;;;;;1.73;1.10;;;10.80;99.90;;;;;;5062730;28;20252;-84
2022/09/18 10:09:46;;;;;;;3.40;1.20;;;10.80;99.90;;;;;;5063181;28;20170;-85
2022/09/18 10:12:36;;;;;;;3.07;1.27;;;10.70;99.90;;;;;;5061412;28;20208;-86
2022/09/18 10:15:22;;;;;;;3.00;1.10;;;10.70;99.90;;;;;;5062677;28;20238;-85
2022/09/18 10:17:52;;;;;;;3.43;0.90;;;10.60;99.90;;;;;;5062777;28;20181;-84
2022/09/18 10:20:29;;;;;;;2.93;0.90;;;10.60;99.90;;;;;;5062491;28;20263;-85
2022/09/18 10:23:08;;;;;;;2.40;1.07;;;10.60;99.90;;;;;;5062300;28;20685;-85
2022/09/18 10:25:51;;;;;;;2.43;1.23;;;10.80;99.90;;;;;;5060891;28;20183;-85
2022/09/18 10:28:16;;;;;;;6.03;1.87;;;11.00;99.90;;;;;;5062091;28;20165;-84
2022/09/18 10:31:12;;;;;;;3.37;1.47;;;11.20;99.90;;;;;;5061039;28;20240;-84
2022/09/18 10:33:45;;;;;;;4.57;1.90;;;11.50;99.90;;;;;;5054563;28;20702;-89
2022/09/18 10:36:46;;;;;;;2.90;1.40;;;11.70;99.90;;;;;;5059791;28;20178;-85
2022/09/18 10:39:17;;;;;;;2.50;1.90;;;11.80;99.90;;;;;;5042472;28;20177;-86
2022/09/18 10:41:43;;;;;;;2.90;1.30;;;11.90;99.90;;;;;;5053633;28;20245;-87
2022/09/18 10:44:23;;;;;;;1.50;0.73;;;11.90;99.90;;;;;;5057569;28;20197;-87
2022/09/18 10:47:11;;;;;;;2.03;1.00;;;11.80;99.90;;;;;;5058749;28;20215;-86
2022/09/18 10:49:48;;;;;;;2.37;0.90;;;11.60;99.90;;;;;;5058478;28;20165;-85
2022/09/18 10:52:30;;;;;;;3.47;1.10;;;11.40;99.90;;;;;;5057918;28;20229;-85
2022/09/18 10:55:06;;;;;;;1.90;0.80;;;11.40;99.90;;;;;;5057846;28;20218;-86
2022/09/18 10:57:37;;;;;;;4.27;0.83;;;11.30;99.90;;;;;;5058367;28;20149;-86
2022/09/18 11:00:18;;;;;;;2.30;0.77;;;11.10;99.90;;;;;;5057934;28;20647;-84
2022/09/18 11:02:58;;;;;;;5.30;1.70;;;11.00;99.90;;;;;;5060258;28;20196;-88
2022/09/18 11:05:38;;;;;;;4.43;2.63;;;11.00;99.90;;;;;;5059461;28;20169;-86
2022/09/18 11:08:12;;;;;;;1.93;1.10;;;10.90;99.90;;;;;;5060575;28;20165;-87
2022/09/18 11:10:38;;;;;;;2.03;1.10;;;10.90;99.90;;;;;;5062426;28;20181;-86
2022/09/18 11:13:04;;;;;;;2.57;1.10;;;10.80;99.90;;;;;;5060471;28;20239;-85
2022/09/18 11:15:33;;;;;;;1.20;1.10;;;10.80;99.90;;;;;;5059091;28;20176;-89
2022/09/18 11:18:02;;;;;;;3.00;1.30;;;10.70;99.90;;;;;;5059040;28;20174;-84
2022/09/18 11:20:34;;;;;;;2.27;1.13;;;10.70;99.90;;;;;;5058062;28;20184;-82
2022/09/18 11:23:17;;;;;;;2.83;1.10;;;10.60;99.90;;;;;;5058800;28;20225;-83
2022/09/18 11:25:46;;;;;;;2.30;1.20;;;10.70;99.90;;;;;;5056540;28;20647;-83
2022/09/18 11:28:28;;;;;;;1.83;1.30;;;10.60;99.90;;;;;;5056949;28;20177;-83
2022/09/18 11:31:10;;;;;;;6.47;1.80;;;10.60;99.90;;;;;;5057717;28;20172;-80
2022/09/18 11:33:41;;;;;;;1.23;0.97;;;10.50;99.90;;;;;;5055708;28;20693;-83
2022/09/18 11:36:09;;;;;;;5.00;3.20;;;10.40;99.90;;;;;;5056132;28;20169;-85
2022/09/18 11:38:44;;;;;;;12.57;9.17;;;10.40;99.90;;;;;;5057752;28;20174;-83
2022/09/18 11:41:12;;;;;;;4.63;3.23;;;10.50;99.90;;;;;;5057383;28;20161;-83
2022/09/18 11:43:40;;;;;;;5.07;4.10;;;10.60;99.90;;;;;;5057617;28;20281;-83
2022/09/18 11:46:18;;;;;;;7.60;5.20;;;10.70;99.90;;;;;;5056338;28;20175;-84
2022/09/18 11:49:00;;;;;;;4.33;2.10;;;10.90;99.90;;;;;;5055871;28;20279;-83
2022/09/18 11:51:51;;;;;;;1.40;0.90;;;11.20;99.90;;;;;;5056623;28;20193;-85
2022/09/18 11:54:38;;;;;;;1.90;0.80;;;11.40;99.90;;;;;;5056692;28;20191;-83
2022/09/18 11:57:16;;;;;;;3.13;1.10;;;11.40;99.90;;;;;;5058050;28;20165;-83
2022/09/18 11:59:53;;;;;;;2.37;1.30;;;11.30;99.90;;;;;;5057550;28;20608;-84
2022/09/18 12:02:30;;;;;;;3.10;0.90;;;11.30;99.90;;;;;;5056919;28;20211;-82
2022/09/18 12:05:19;;;;;;;4.70;3.37;;;11.20;99.90;;;;;;5056330;28;20167;-82
2022/09/18 12:08:15;;;;;;;5.37;4.80;;;11.30;99.90;;;;;;5056321;28;20550;-83
2022/09/18 12:10:44;;;;;;;1.40;1.10;;;11.20;99.90;;;;;;5052859;28;20249;-83
2022/09/18 12:13:32;;;;;;;0.87;0.60;;;11.10;99.90;;;;;;5056007;28;20200;-83
2022/09/18 12:16:10;;;;;;;3.53;0.80;;;10.90;99.90;;;;;;5056489;28;20542;-83
2022/09/18 12:18:52;;;;;;;2.27;1.07;;;10.80;99.90;;;;;;5057002;28;20162;-83
2022/09/18 12:21:26;;;;;;;1.83;0.80;;;10.50;99.90;;;;;;5059310;28;20150;-83
2022/09/18 12:23:52;;;;;;;1.73;0.97;;;10.30;99.90;;;;;;5056910;28;20553;-84
2022/09/18 12:26:42;;;;;;;1.70;0.90;;;10.10;99.90;;;;;;5055444;28;20181;-83
2022/09/18 12:29:36;;;;;;;1.93;1.20;;;10.00;99.90;;;;;;5054945;28;20204;-83
2022/09/18 12:32:39;;;;;;;2.83;1.10;;;9.80;99.90;;;;;;5055455;28;20177;-82
2022/09/18 12:35:36;;;;;;;2.67;0.97;;;9.90;99.90;;;;;;5055040;28;20233;-82
2022/09/18 12:38:17;;;;;;;1.00;0.90;;;9.90;99.90;;;;;;5055687;28;20211;-84
2022/09/18 12:41:24;;;;;;;1.47;1.00;;;10.00;99.90;;;;;;5055326;28;20174;-82
2022/09/18 12:43:53;;;;;;;1.40;1.10;;;10.10;99.90;;;;;;5038206;28;20231;-84
2022/09/18 12:46:43;;;;;;;2.00;1.77;;;10.40;99.90;;;;;;5055293;28;20190;-84
2022/09/18 12:49:30;;;;;;;193.83;87.50;;;10.50;99.90;;;;;;5055048;28;20184;-83
2022/09/18 12:52:18;;;;;;;16.10;10.33;;;10.70;99.90;;;;;;5055018;28;20179;-82
2022/09/18 12:55:13;;;;;;;5.90;4.83;;;10.90;99.90;;;;;;5055577;28;20189;-83
2022/09/18 12:57:57;;;;;;;6.80;5.10;;;11.10;99.90;;;;;;5055601;28;20613;-81
2022/09/18 13:00:23;;;;;;;3.97;2.60;;;11.20;99.90;;;;;;5057080;28;20169;-83
2022/09/18 13:02:54;;;;;;;3.67;2.67;;;11.10;99.90;;;;;;5055569;28;20329;-84
2022/09/18 13:05:32;;;;;;;9.97;2.17;;;11.00;99.90;;;;;;5055924;28;20173;-82
2022/09/18 13:08:21;;;;;;;3.33;2.43;;;10.80;99.90;;;;;;5056008;28;20192;-84
2022/09/18 13:10:50;;;;;;;3.53;2.00;;;10.80;99.90;;;;;;5056438;28;20165;-83
2022/09/18 13:13:19;;;;;;;4.80;2.00;;;10.90;99.90;;;;;;5056217;28;20221;-83
2022/09/18 13:16:01;;;;;;;1.90;1.57;;;11.00;99.90;;;;;;5054765;28;20220;-87
2022/09/18 13:18:58;;;;;;;2.83;1.30;;;11.20;99.90;;;;;;5055122;28;20205;-83
2022/09/18 13:21:33;;;;;;;1.97;1.30;;;11.50;99.90;;;;;;5057634;28;20632;-84
2022/09/18 13:24:00;;;;;;;1.60;1.20;;;11.70;99.90;;;;;;5059276;28;20205;-84
2022/09/18 13:26:30;;;;;;;1.93;1.40;;;11.90;99.90;;;;;;5060879;28;20178;-84
2022/09/18 13:28:56;;;;;;;4.53;1.00;;;12.00;99.90;;;;;;5060955;28;20183;-84
2022/09/18 13:31:27;;;;;;;3.60;1.60;;;11.90;99.90;;;;;;5057124;28;20181;-83
2022/09/18 13:34:03;;;;;;;3.23;1.23;;;11.90;99.90;;;;;;5058903;28;20304;-83
2022/09/18 13:36:39;;;;;;;5.33;1.20;;;11.90;99.90;;;;;;5057276;28;20177;-84
2022/09/18 13:39:27;;;;;;;3.17;1.23;;;11.80;99.90;;;;;;5056805;28;20169;-84
2022/09/18 13:41:57;;;;;;;3.50;0.90;;;11.60;99.90;;;;;;5057969;28;20174;-84
2022/09/18 13:44:24;;;;;;;1.87;0.87;;;11.70;99.90;;;;;;5056535;28;20186;-83
2022/09/18 13:46:52;;;;;;;3.60;1.47;;;11.80;99.90;;;;;;5056305;28;20211;-85
2022/09/18 13:49:27;;;;;;;1.63;1.10;;;12.00;99.90;;;;;;5057628;28;20174;-84
2022/09/18 13:51:54;;;;;;;2.20;1.20;;;12.20;99.90;;;;;;5059154;28;20168;-83
2022/09/18 13:54:21;;;;;;;2.93;1.20;;;12.30;99.90;;;;;;5058441;28;20197;-83
2022/09/18 13:57:02;;;;;;;2.00;1.17;;;12.40;99.90;;;;;;5057828;28;20643;-84
2022/09/18 13:59:57;;;;;;;4.20;0.80;;;12.50;99.90;;;;;;5056661;28;20177;-85
2022/09/18 14:02:32;;;;;;;1.43;0.90;;;12.60;99.90;;;;;;5056644;28;20198;-83
2022/09/18 14:05:01;;;;;;;2.37;1.20;;;12.70;99.90;;;;;;5056851;28;20548;-83
2022/09/18 14:07:43;;;;;;;8.40;7.07;;;12.70;99.90;;;;;;5056838;28;20296;-86
2022/09/18 14:10:46;;;;;;;3.43;2.70;;;12.80;99.90;;;;;;5056611;28;20566;-83
2022/09/18 14:16:10;;;;;;;2.80;2.10;;;13.10;99.90;;;;;;5058112;28;20261;-84
2022/09/18 14:18:42;;;;;;;2.50;1.70;;;13.10;99.90;;;;;;5057222;28;20618;-83
2022/09/18 14:21:16;;;;;;;2.90;1.20;;;13.00;99.90;;;;;;5058533;28;20253;-82
2022/09/18 14:23:45;;;;;;;2.47;1.10;;;13.00;99.90;;;;;;5056998;28;20253;-84
2022/09/18 14:29:04;;;;;;;1.10;0.90;;;13.30;99.90;;;;;;5057810;28;20214;-83
2022/09/18 14:31:34;;;;;;;2.10;0.87;;;13.40;99.90;;;;;;5057630;28;20153;-84
2022/09/18 14:34:09;;;;;;;2.40;2.20;;;13.30;99.90;;;;;;5056369;28;20546;-84
2022/09/18 14:36:59;;;;;;;2.60;2.33;;;13.10;99.90;;;;;;5056719;28;20211;-84
2022/09/18 14:39:26;;;;;;;9.23;8.47;;;12.80;99.90;;;;;;5056625;28;20170;-84
2022/09/18 14:41:59;;;;;;;1.17;1.07;;;12.60;99.90;;;;;;5058938;28;20621;-83
2022/09/18 14:44:31;;;;;;;2.43;1.10;;;12.50;99.90;;;;;;5057608;28;20174;-84
2022/09/18 14:47:02;;;;;;;1.07;0.70;;;12.40;99.90;;;;;;5059790;28;20526;-83
2022/09/18 14:49:43;;;;;;;0.80;0.63;;;12.40;99.90;;;;;;5059091;28;20174;-87
2022/09/18 14:52:23;;;;;;;2.63;1.30;;;12.30;99.90;;;;;;5057735;28;20631;-84
2022/09/18 14:54:52;;;;;;;2.87;2.43;;;12.30;99.90;;;;;;5058184;28;20626;-84
2022/09/18 14:57:21;;;;;;;2.50;1.50;;;12.20;99.90;;;;;;5057467;28;20734;-84
2022/09/18 14:59:54;;;;;;;1.97;1.20;;;12.30;99.90;;;;;;5058010;28;20180;-84
2022/09/18 15:02:35;;;;;;;0.80;0.77;;;12.40;99.90;;;;;;5058117;28;20189;-85
2022/09/18 15:05:09;;;;;;;2.17;0.53;;;12.40;99.90;;;;;;5058500;28;20611;-84
2022/09/18 15:07:38;;;;;;;0.80;0.60;;;12.30;99.90;;;;;;5057637;28;20233;-84
2022/09/18 15:10:06;;;;;;;1.20;0.70;;;12.20;99.90;;;;;;5057159;28;20636;-84
2022/09/18 15:12:34;;;;;;;2.00;0.80;;;12.20;99.90;;;;;;5055553;28;20272;-85
2022/09/18 15:15:23;;;;;;;3.00;1.70;;;12.10;99.90;;;;;;5057239;28;20220;-85
2022/09/18 15:17:53;;;;;;;16.60;9.73;;;12.10;99.90;;;;;;5056531;28;20526;-87
2022/09/18 15:20:21;;;;;;;12.57;10.97;;;12.00;99.90;;;;;;5058903;28;20177;-85
2022/09/18 15:22:47;;;;;;;9.33;8.43;;;11.90;99.90;;;;;;5057238;28;20200;-85
2022/09/18 15:25:16;;;;;;;4.83;3.63;;;11.90;99.90;;;;;;5057072;28;20581;-83
2022/09/18 15:27:43;;;;;;;5.97;2.60;;;11.90;99.90;;;;;;5058436;28;20173;-84
2022/09/18 15:30:20;;;;;;;5.00;1.03;;;11.80;99.90;;;;;;5056252;28;20213;-84
2022/09/18 15:33:09;;;;;;;2.43;1.50;;;11.70;99.90;;;;;;5057856;28;20565;-84
2022/09/18 15:35:36;;;;;;;2.33;1.60;;;11.70;99.90;;;;;;5055905;28;20194;-85
2022/09/18 15:38:16;;;;;;;3.67;0.90;;;11.60;99.90;;;;;;5056574;28;20264;-85
2022/09/18 15:40:42;;;;;;;2.30;1.27;;;11.50;99.90;;;;;;5056662;28;20174;-84
2022/09/18 15:43:30;;;;;;;1.40;1.20;;;11.50;99.90;;;;;;5056641;28;20228;-83
2022/09/18 15:46:29;;;;;;;1.93;1.10;;;11.50;99.90;;;;;;5056943;28;20177;-86
2022/09/18 15:49:01;;;;;;;1.53;1.10;;;11.40;99.90;;;;;;5058352;28;20166;-85
2022/09/18 15:51:34;;;;;;;1.53;1.10;;;11.40;99.90;;;;;;5056354;28;20177;-85
2022/09/18 15:54:04;;;;;;;1.30;0.87;;;11.40;99.90;;;;;;5056071;28;20205;-84
2022/09/18 15:56:32;;;;;;;2.77;0.90;;;11.30;99.90;;;;;;5056569;28;20162;-84
2022/09/18 15:59:02;;;;;;;2.33;1.10;;;11.30;99.90;;;;;;5055717;28;20177;-85
2022/09/18 16:01:43;;;;;;;0.90;0.80;;;11.30;99.90;;;;;;5055960;28;20178;-86
2022/09/18 16:04:19;;;;;;;2.23;1.20;;;11.20;99.90;;;;;;5056090;28;20248;-84
2022/09/18 16:06:59;;;;;;;1.70;0.93;;;11.20;99.90;;;;;;5058048;28;20274;-84
2022/09/18 16:09:43;;;;;;;3.53;1.13;;;11.20;99.90;;;;;;5058506;28;20208;-88
2022/09/18 16:12:28;;;;;;;1.30;0.73;;;11.10;99.90;;;;;;5058966;28;20161;-84
2022/09/18 16:14:59;;;;;;;2.87;1.23;;;11.10;99.90;;;;;;5058565;28;20685;-85
2022/09/18 16:17:28;;;;;;;1.87;1.10;;;11.00;99.90;;;;;;5059198;28;20173;-84
2022/09/18 16:19:59;;;;;;;1.47;0.97;;;11.00;99.90;;;;;;5058751;28;20178;-84
2022/09/18 16:22:27;;;;;;;3.00;1.10;;;11.00;99.90;;;;;;5060412;28;20193;-83
2022/09/18 16:24:55;;;;;;;2.67;1.00;;;11.00;99.90;;;;;;5060349;28;20182;-83
2022/09/18 16:27:23;;;;;;;4.57;1.50;;;11.00;99.90;;;;;;5061382;28;20173;-83
2022/09/18 16:29:49;;;;;;;3.00;1.60;;;11.00;99.90;;;;;;5060291;28;20181;-84
2022/09/18 16:32:15;;;;;;;2.00;1.20;;;11.00;99.90;;;;;;5061397;28;20215;-86
2022/09/18 16:34:43;;;;;;;2.27;1.10;;;11.00;99.90;;;;;;5059225;28;20700;-83
2022/09/18 16:37:11;;;;;;;3.23;1.60;;;10.90;99.90;;;;;;5059129;28;20164;-83
2022/09/18 16:39:37;;;;;;;2.13;1.00;;;10.90;99.90;;;;;;5058433;28;20538;-81
2022/09/18 16:42:17;;;;;;;2.60;1.03;;;10.80;99.90;;;;;;5059535;28;20173;-83
2022/09/18 16:44:43;;;;;;;2.43;1.03;;;10.80;99.90;;;;;;5058825;28;20169;-85
2022/09/18 16:47:11;;;;;;;1.20;1.10;;;10.80;99.90;;;;;;5058165;28;20173;-86
2022/09/18 16:49:41;;;;;;;3.83;1.50;;;10.80;99.90;;;;;;5057557;28;20643;-85
2022/09/18 16:52:07;;;;;;;4.40;1.50;;;10.80;99.90;;;;;;5057852;28;20200;-86
2022/09/18 16:54:34;;;;;;;2.70;1.50;;;10.70;99.90;;;;;;5059314;28;20203;-86
2022/09/18 16:57:17;;;;;;;1.90;1.70;;;10.80;99.90;;;;;;5062949;28;20201;-85
2022/09/18 16:59:43;;;;;;;2.90;1.40;;;10.70;99.90;;;;;;5062367;28;20252;-85
2022/09/18 17:02:11;;;;;;;3.17;1.70;;;10.80;99.90;;;;;;5063282;28;20168;-85
2022/09/18 17:04:37;;;;;;;4.27;1.30;;;10.70;99.90;;;;;;5063424;28;20181;-84
2022/09/18 17:07:03;;;;;;;2.33;1.10;;;10.70;99.90;;;;;;5064489;28;20621;-85
2022/09/18 17:09:29;;;;;;;5.97;1.40;;;10.70;99.90;;;;;;5063634;28;20184;-85
2022/09/18 17:11:55;;;;;;;3.23;1.23;;;10.70;99.90;;;;;;5063353;28;20796;-85
2022/09/18 17:14:21;;;;;;;1.90;1.40;;;10.60;99.90;;;;;;5062985;28;20337;-87
2022/09/18 17:16:46;;;;;;;1.87;1.20;;;10.70;99.90;;;;;;5063330;28;20174;-84
2022/09/18 17:19:12;;;;;;;2.73;1.23;;;10.70;99.90;;;;;;5063187;28;20212;-85
2022/09/18 17:21:39;;;;;;;2.10;1.33;;;10.60;99.90;;;;;;5063342;28;20173;-85
2022/09/18 17:24:05;;;;;;;1.50;1.17;;;10.70;99.90;;;;;;5063083;28;20286;-86
2022/09/18 17:26:31;;;;;;;1.60;1.27;;;10.70;99.90;;;;;;5063933;28;20181;-85
2022/09/18 17:28:57;;;;;;;3.93;1.60;;;10.70;99.90;;;;;;5065641;28;20173;-86
2022/09/18 17:31:25;;;;;;;3.03;1.67;;;10.60;99.90;;;;;;5064448;28;20176;-84
2022/09/18 17:33:51;;;;;;;2.60;1.43;;;10.60;99.90;;;;;;5064134;28;20239;-86
2022/09/18 17:36:18;;;;;;;1.47;1.10;;;10.60;99.90;;;;;;5064120;28;20177;-85
2022/09/18 17:38:44;;;;;;;4.53;1.50;;;10.70;99.90;;;;;;5063336;28;20182;-86
2022/09/18 17:41:12;;;;;;;3.80;1.73;;;10.60;99.90;;;;;;5064140;28;20176;-85
2022/09/18 17:43:39;;;;;;;2.30;1.10;;;10.60;99.90;;;;;;5064081;28;20564;-85
2022/09/18 17:46:06;;;;;;;2.23;1.20;;;10.60;99.90;;;;;;5065136;28;20183;-85
2022/09/18 17:48:32;;;;;;;3.23;1.43;;;10.60;99.90;;;;;;5063803;28;20180;-85
2022/09/18 17:51:05;;;;;;;2.73;1.40;;;10.60;99.90;;;;;;5065029;28;20183;-86
2022/09/18 17:53:32;;;;;;;2.57;1.30;;;10.60;99.90;;;;;;5063718;28;20198;-84
2022/09/18 17:55:59;;;;;;;2.50;1.40;;;10.60;99.90;;;;;;5064013;28;20640;-84
2022/09/18 17:58:30;;;;;;;2.10;1.13;;;10.60;99.90;;;;;;5062741;28;20174;-84
2022/09/18 18:00:56;;;;;;;1.90;1.20;;;10.60;99.90;;;;;;5062458;28;20169;-84
2022/09/18 18:03:24;;;;;;;2.40;1.30;;;10.60;99.90;;;;;;5063760;28;20198;-84
2022/09/18 18:05:59;;;;;;;2.73;1.60;;;10.60;99.90;;;;;;5063194;28;20548;-85
2022/09/18 18:08:26;;;;;;;2.83;1.73;;;10.60;99.90;;;;;;5063254;28;20158;-86
2022/09/18 18:10:53;;;;;;;3.77;1.50;;;10.50;99.90;;;;;;5062439;28;20559;-85
2022/09/18 18:13:19;;;;;;;3.30;1.40;;;10.50;99.90;;;;;;5063729;28;20579;-84
2022/09/18 18:15:45;;;;;;;1.57;1.27;;;10.50;99.90;;;;;;5065497;28;20180;-85
2022/09/18 18:18:11;;;;;;;3.73;1.20;;;10.50;99.90;;;;;;5065018;28;20182;-84
2022/09/18 18:20:37;;;;;;;1.73;1.10;;;10.50;99.90;;;;;;5063478;28;20173;-86
2022/09/18 18:23:03;;;;;;;1.77;1.50;;;10.50;99.90;;;;;;5062083;28;20201;-86
2022/09/18 18:25:28;;;;;;;2.77;1.63;;;10.60;99.90;;;;;;5064063;28;20227;-83
2022/09/18 18:27:54;;;;;;;2.87;2.03;;;10.60;99.90;;;;;;5062569;28;20208;-85
2022/09/18 18:30:22;;;;;;;1.83;1.30;;;10.60;99.90;;;;;;5064115;28;20177;-85
2022/09/18 18:32:50;;;;;;;4.30;1.53;;;10.60;99.90;;;;;;5063993;28;20201;-84
2022/09/18 18:35:16;;;;;;;2.63;1.43;;;10.50;99.90;;;;;;5062620;28;20209;-84
2022/09/18 18:37:42;;;;;;;2.77;2.17;;;10.50;99.90;;;;;;5064339;28;20172;-85
2022/09/18 18:40:08;;;;;;;2.73;1.20;;;10.50;99.90;;;;;;5062985;28;20169;-84
2022/09/18 18:42:34;;;;;;;4.33;1.40;;;10.50;99.90;;;;;;5064448;28;20240;-85
2022/09/18 18:45:01;;;;;;;2.20;1.40;;;10.50;99.90;;;;;;5062235;28;20175;-84
2022/09/18 18:47:28;;;;;;;2.73;1.20;;;10.40;99.90;;;;;;5061829;28;20167;-83
2022/09/18 18:49:56;;;;;;;2.43;1.40;;;10.40;99.90;;;;;;5063836;28;20195;-85
2022/09/18 18:52:23;;;;;;;2.20;1.30;;;10.40;99.90;;;;;;5062005;28;20197;-84
2022/09/18 18:54:49;;;;;;;2.60;1.20;;;10.40;99.90;;;;;;5062823;28;20208;-86
2022/09/18 18:57:15;;;;;;;6.07;1.77;;;10.40;99.90;;;;;;5062663;28;20244;-84
2022/09/18 18:59:42;;;;;;;2.50;1.50;;;10.40;99.90;;;;;;5062409;28;20205;-85
2022/09/18 19:02:09;;;;;;;2.30;1.33;;;10.40;99.90;;;;;;5062402;28;20205;-85
2022/09/18 19:04:37;;;;;;;2.17;1.70;;;10.30;99.90;;;;;;5062487;28;20181;-86
2022/09/18 19:07:05;;;;;;;4.97;2.37;;;10.30;99.90;;;;;;5061637;28;20182;-85
2022/09/18 19:09:32;;;;;;;3.13;2.57;;;10.30;99.90;;;;;;5063196;28;20262;-84
2022/09/18 19:11:59;;;;;;;5.43;4.20;;;10.30;99.90;;;;;;5061455;28;20632;-85
2022/09/18 19:14:30;;;;;;;4.33;2.70;;;10.30;99.90;;;;;;5062415;28;20198;-84
2022/09/18 19:16:56;;;;;;;3.47;1.90;;;10.20;99.90;;;;;;5061530;28;20196;-84
2022/09/18 19:19:24;;;;;;;3.47;2.13;;;10.20;99.90;;;;;;5061937;28;20225;-84
2022/09/18 19:21:50;;;;;;;3.13;2.13;;;10.20;99.90;;;;;;5063000;28;20169;-85
2022/09/18 19:24:19;;;;;;;2.50;2.00;;;10.20;99.90;;;;;;5061036;28;20201;-85
2022/09/18 19:26:46;;;;;;;4.10;2.07;;;10.20;99.90;;;;;;5061741;28;20284;-84
2022/09/18 19:29:18;;;;;;;4.77;1.90;;;10.20;99.90;;;;;;5062938;28;20189;-85
2022/09/18 19:31:45;;;;;;;3.20;1.10;;;10.20;99.90;;;;;;5060771;28;20292;-85
2022/09/18 19:34:13;;;;;;;3.83;1.43;;;10.10;99.90;;;;;;5060616;28;20210;-84
2022/09/18 19:36:39;;;;;;;2.70;2.50;;;10.20;99.90;;;;;;5063733;28;20599;-85
2022/09/18 19:39:06;;;;;;;2.13;1.30;;;10.10;99.90;;;;;;5061912;28;20179;-85
2022/09/18 19:41:51;;;;;;;1.97;1.03;;;10.10;99.90;;;;;;5060579;28;20223;-84
2022/09/18 19:44:52;;;;;;;3.40;1.30;;;10.10;99.90;;;;;;5062258;28;20281;-85
2022/09/18 19:47:25;;;;;;;1.47;1.10;;;10.10;99.90;;;;;;5060387;28;20196;-85
2022/09/18 19:49:52;;;;;;;2.30;1.40;;;10.10;99.90;;;;;;5061116;28;20181;-85
2022/09/18 19:52:23;;;;;;;2.33;1.00;;;10.10;99.90;;;;;;5060433;28;20683;-85
2022/09/18 19:54:51;;;;;;;1.33;1.17;;;10.10;99.90;;;;;;5062321;28;20193;-85
2022/09/18 19:57:18;;;;;;;2.20;1.37;;;10.10;99.90;;;;;;5060362;28;20208;-86
2022/09/18 19:59:45;;;;;;;2.80;1.20;;;10.00;99.90;;;;;;5060494;28;20240;-85
2022/09/18 20:02:18;;;;;;;3.60;1.03;;;10.10;99.90;;;;;;5061436;28;20233;-85
2022/09/18 20:04:44;;;;;;;2.97;0.83;;;10.00;99.90;;;;;;5062494;28;20157;-86
2022/09/18 20:07:09;;;;;;;2.33;1.03;;;10.00;99.90;;;;;;5060665;28;20544;-85
2022/09/18 20:09:35;;;;;;;1.77;1.40;;;10.10;99.90;;;;;;5061996;28;20174;-85
2022/09/18 20:12:01;;;;;;;1.70;1.10;;;10.00;99.90;;;;;;5060827;28;20185;-85
2022/09/18 20:14:27;;;;;;;3.67;1.00;;;10.00;99.90;;;;;;5059577;28;20200;-87
2022/09/18 20:16:54;;;;;;;1.70;1.10;;;10.00;99.90;;;;;;5048175;28;20687;-85
2022/09/18 20:19:21;;;;;;;1.67;0.90;;;9.90;99.90;;;;;;5047684;28;20183;-85
